sensor_id;sensor_type;location;lat;lon;timestamp;pressure;altitude;pressure_sealevel;temperature;humidity
33151;BME280;19508;42.578;23.416;2023-02-01T00:01:10;93745.66;;;2.13;66.61
33151;BME280;19508;42.578;23.416;2023-02-01T00:03:35;93747.69;;;2.05;66.66
33151;BME280;19508;42.578;23.416;2023-02-01T00:06:01;93751.38;;;2.30;66.56
33151;BME280;19508;42.578;23.416;2023-02-01T00:08:27;93746.91;;;2.24;66.49
33151;BME280;19508;42.578;23.416;2023-02-01T00:11:00;93749.75;;;2.29;66.30
33151;BME280;19508;42.578;23.416;2023-02-01T00:13:29;93751.59;;;2.22;66.13
33151;BME280;19508;42.578;23.416;2023-02-01T00:15:54;93735.88;;;2.34;66.03
33151;BME280;19508;42.578;23.416;2023-02-01T00:18:20;93742.81;;;2.41;65.64
33151;BME280;19508;42.578;23.416;2023-02-01T00:20:46;93739.94;;;2.36;65.91
33151;BME280;19508;42.578;23.416;2023-02-01T00:23:12;93739.53;;;2.39;66.04
33151;BME280;19508;42.578;23.416;2023-02-01T00:25:37;93743.00;;;2.20;66.39
33151;BME280;19508;42.578;23.416;2023-02-01T00:28:02;93735.25;;;2.25;66.22
33151;BME280;19508;42.578;23.416;2023-02-01T00:30:28;93724.22;;;2.02;65.62
33151;BME280;19508;42.578;23.416;2023-02-01T00:32:53;93735.25;;;2.25;65.67
33151;BME280;19508;42.578;23.416;2023-02-01T00:35:18;93739.53;;;2.13;66.07
33151;BME280;19508;42.578;23.416;2023-02-01T00:37:44;93739.13;;;2.29;65.52
33151;BME280;19508;42.578;23.416;2023-02-01T00:40:10;93735.47;;;2.17;65.33
33151;BME280;19508;42.578;23.416;2023-02-01T00:42:35;93725.22;;;2.20;65.44
33151;BME280;19508;42.578;23.416;2023-02-01T00:45:01;93713.78;;;2.26;65.32
33151;BME280;19508;42.578;23.416;2023-02-01T00:47:26;93715.84;;;2.18;64.96
33151;BME280;19508;42.578;23.416;2023-02-01T00:49:51;93728.31;;;2.17;65.62
33151;BME280;19508;42.578;23.416;2023-02-01T00:52:17;93731.34;;;2.21;65.13
33151;BME280;19508;42.578;23.416;2023-02-01T00:54:42;93726.03;;;2.21;65.23
33151;BME280;19508;42.578;23.416;2023-02-01T00:57:08;93714.00;;;2.18;64.84
33151;BME280;19508;42.578;23.416;2023-02-01T00:59:33;93715.84;;;2.11;64.11
33151;BME280;19508;42.578;23.416;2023-02-01T01:01:58;93727.88;;;2.01;63.63
33151;BME280;19508;42.578;23.416;2023-02-01T01:04:24;93730.53;;;1.81;62.60
33151;BME280;19508;42.578;23.416;2023-02-01T01:06:49;93717.66;;;1.71;63.41
33151;BME280;19508;42.578;23.416;2023-02-01T01:09:14;93721.75;;;1.87;62.38
33151;BME280;19508;42.578;23.416;2023-02-01T01:11:40;93726.63;;;1.70;62.52
33151;BME280;19508;42.578;23.416;2023-02-01T01:14:07;93726.44;;;1.72;62.40
33151;BME280;19508;42.578;23.416;2023-02-01T01:16:33;93724.16;;;1.55;63.05
33151;BME280;19508;42.578;23.416;2023-02-01T01:18:59;93717.03;;;1.76;62.46
33151;BME280;19508;42.578;23.416;2023-02-01T01:21:25;93722.56;;;1.74;62.29
33151;BME280;19508;42.578;23.416;2023-02-01T01:23:51;93725.63;;;1.84;62.39
33151;BME280;19508;42.578;23.416;2023-02-01T01:26:19;93720.53;;;1.89;61.75
33151;BME280;19508;42.578;23.416;2023-02-01T01:28:45;93718.28;;;1.80;62.03
33151;BME280;19508;42.578;23.416;2023-02-01T01:31:12;93725.22;;;1.81;61.93
33151;BME280;19508;42.578;23.416;2023-02-01T01:33:38;93728.84;;;1.47;62.00
33151;BME280;19508;42.578;23.416;2023-02-01T01:36:05;93742.50;;;1.50;61.91
33151;BME280;19508;42.578;23.416;2023-02-01T01:38:31;93724.97;;;1.69;60.83
33151;BME280;19508;42.578;23.416;2023-02-01T01:40:56;93730.06;;;1.57;60.58
33151;BME280;19508;42.578;23.416;2023-02-01T01:43:22;93751.72;;;1.61;60.22
33151;BME280;19508;42.578;23.416;2023-02-01T01:45:48;93737.00;;;1.52;60.02
33151;BME280;19508;42.578;23.416;2023-02-01T01:48:22;93745.56;;;1.47;60.60
33151;BME280;19508;42.578;23.416;2023-02-01T01:50:57;93742.34;;;1.65;60.41
33151;BME280;19508;42.578;23.416;2023-02-01T01:53:34;93742.13;;;1.60;59.86
33151;BME280;19508;42.578;23.416;2023-02-01T01:56:02;93745.78;;;1.46;60.36
33151;BME280;19508;42.578;23.416;2023-02-01T01:58:29;93747.22;;;1.55;60.28
33151;BME280;19508;42.578;23.416;2023-02-01T02:00:57;93739.88;;;1.57;60.07
33151;BME280;19508;42.578;23.416;2023-02-01T02:03:41;93732.94;;;1.69;59.76
33151;BME280;19508;42.578;23.416;2023-02-01T02:06:33;93728.22;;;1.58;60.53
33151;BME280;19508;42.578;23.416;2023-02-01T02:09:00;93731.28;;;1.48;60.54
33151;BME280;19508;42.578;23.416;2023-02-01T02:11:25;93729.44;;;1.49;60.51
33151;BME280;19508;42.578;23.416;2023-02-01T02:13:53;93731.47;;;1.47;60.51
33151;BME280;19508;42.578;23.416;2023-02-01T02:36:01;93713.06;;;0.77;62.77
33151;BME280;19508;42.578;23.416;2023-02-01T02:38:58;93715.00;;;0.62;63.00
33151;BME280;19508;42.578;23.416;2023-02-01T02:41:28;93708.97;;;0.40;64.31
33151;BME280;19508;42.578;23.416;2023-02-01T02:47:42;93714.19;;;0.27;65.00
33151;BME280;19508;42.578;23.416;2023-02-01T02:53:15;93710.16;;;0.38;65.00
33151;BME280;19508;42.578;23.416;2023-02-01T02:56:01;93705.50;;;0.40;64.67
33151;BME280;19508;42.578;23.416;2023-02-01T02:58:48;93702.78;;;0.33;63.79
33151;BME280;19508;42.578;23.416;2023-02-01T03:01:33;93708.84;;;0.55;63.79
33151;BME280;19508;42.578;23.416;2023-02-01T03:04:17;93709.56;;;0.77;62.86
33151;BME280;19508;42.578;23.416;2023-02-01T03:06:44;93706.56;;;0.87;62.70
33151;BME280;19508;42.578;23.416;2023-02-01T03:09:16;93714.78;;;0.98;62.43
33151;BME280;19508;42.578;23.416;2023-02-01T03:11:47;93722.19;;;1.16;61.73
33151;BME280;19508;42.578;23.416;2023-02-01T03:14:33;93722.59;;;1.20;60.29
33151;BME280;19508;42.578;23.416;2023-02-01T03:17:07;93737.31;;;1.22;58.85
33151;BME280;19508;42.578;23.416;2023-02-01T03:19:39;93723.06;;;1.30;58.28
33151;BME280;19508;42.578;23.416;2023-02-01T03:22:12;93736.63;;;1.68;58.32
33151;BME280;19508;42.578;23.416;2023-02-01T03:24:42;93750.91;;;1.67;57.76
33151;BME280;19508;42.578;23.416;2023-02-01T03:27:24;93746.63;;;1.79;57.75
33151;BME280;19508;42.578;23.416;2023-02-01T03:30:04;93751.34;;;1.77;57.43
33151;BME280;19508;42.578;23.416;2023-02-01T03:32:32;93744.81;;;1.73;57.80
33151;BME280;19508;42.578;23.416;2023-02-01T03:35:19;93747.47;;;1.80;57.48
33151;BME280;19508;42.578;23.416;2023-02-01T03:37:47;93740.94;;;1.82;57.19
33151;BME280;19508;42.578;23.416;2023-02-01T03:40:15;93741.56;;;1.71;56.95
33151;BME280;19508;42.578;23.416;2023-02-01T03:42:47;93765.22;;;1.79;57.40
33151;BME280;19508;42.578;23.416;2023-02-01T03:45:20;93741.53;;;1.78;57.97
33151;BME280;19508;42.578;23.416;2023-02-01T03:47:50;93762.84;;;1.97;57.24
33151;BME280;19508;42.578;23.416;2023-02-01T03:50:22;93763.63;;;1.91;57.40
33151;BME280;19508;42.578;23.416;2023-02-01T03:52:56;93752.16;;;1.78;58.22
33151;BME280;19508;42.578;23.416;2023-02-01T03:55:25;93733.41;;;1.92;57.72
33151;BME280;19508;42.578;23.416;2023-02-01T04:00:27;93739.13;;;2.09;57.43
33151;BME280;19508;42.578;23.416;2023-02-01T04:02:53;93740.34;;;2.00;57.88
33151;BME280;19508;42.578;23.416;2023-02-01T04:05:19;93740.56;;;2.12;58.18
33151;BME280;19508;42.578;23.416;2023-02-01T04:07:45;93735.84;;;2.01;58.04
33151;BME280;19508;42.578;23.416;2023-02-01T04:10:11;93728.09;;;1.92;58.36
33151;BME280;19508;42.578;23.416;2023-02-01T04:12:37;93736.84;;;1.66;59.83
33151;BME280;19508;42.578;23.416;2023-02-01T04:15:03;93748.50;;;1.72;59.75
33151;BME280;19508;42.578;23.416;2023-02-01T04:17:29;93737.25;;;1.63;60.35
33151;BME280;19508;42.578;23.416;2023-02-01T04:19:54;93745.66;;;1.80;60.11
33151;BME280;19508;42.578;23.416;2023-02-01T04:22:19;93731.34;;;1.81;59.97
33151;BME280;19508;42.578;23.416;2023-02-01T04:24:45;93744.00;;;1.79;59.93
33151;BME280;19508;42.578;23.416;2023-02-01T04:27:10;93730.53;;;1.81;59.59
33151;BME280;19508;42.578;23.416;2023-02-01T04:29:36;93747.28;;;2.01;59.45
33151;BME280;19508;42.578;23.416;2023-02-01T04:32:01;93735.44;;;1.90;59.80
33151;BME280;19508;42.578;23.416;2023-02-01T04:34:26;93757.50;;;1.91;59.63
33151;BME280;19508;42.578;23.416;2023-02-01T04:36:52;93745.59;;;1.67;60.79
33151;BME280;19508;42.578;23.416;2023-02-01T04:39:17;93762.22;;;1.89;60.84
33151;BME280;19508;42.578;23.416;2023-02-01T04:41:43;93754.03;;;1.90;60.77
33151;BME280;19508;42.578;23.416;2023-02-01T04:44:16;93758.97;;;2.07;60.85
33151;BME280;19508;42.578;23.416;2023-02-01T04:46:42;93750.78;;;2.02;60.69
33151;BME280;19508;42.578;23.416;2023-02-01T04:49:09;93759.97;;;1.99;62.04
33151;BME280;19508;42.578;23.416;2023-02-01T04:51:35;93761.81;;;2.12;61.27
33151;BME280;19508;42.578;23.416;2023-02-01T04:54:00;93747.94;;;2.16;61.11
33151;BME280;19508;42.578;23.416;2023-02-01T04:56:26;93757.94;;;2.14;61.62
33151;BME280;19508;42.578;23.416;2023-02-01T04:58:51;93757.75;;;2.22;61.63
33151;BME280;19508;42.578;23.416;2023-02-01T05:01:17;93759.56;;;2.22;62.14
33151;BME280;19508;42.578;23.416;2023-02-01T05:03:42;93766.13;;;2.06;62.47
33151;BME280;19508;42.578;23.416;2023-02-01T05:06:08;93765.69;;;2.03;62.71
33151;BME280;19508;42.578;23.416;2023-02-01T05:08:33;93764.06;;;2.21;62.08
33151;BME280;19508;42.578;23.416;2023-02-01T05:10:58;93762.41;;;1.94;63.16
33151;BME280;19508;42.578;23.416;2023-02-01T05:13:25;93765.28;;;2.19;62.99
33151;BME280;19508;42.578;23.416;2023-02-01T05:16:08;93767.75;;;2.14;63.32
33151;BME280;19508;42.578;23.416;2023-02-01T05:18:34;93778.38;;;2.27;62.83
33151;BME280;19508;42.578;23.416;2023-02-01T05:20:59;93782.63;;;2.02;63.66
33151;BME280;19508;42.578;23.416;2023-02-01T05:23:25;93776.34;;;2.16;63.59
33151;BME280;19508;42.578;23.416;2023-02-01T05:25:50;93782.47;;;2.16;63.30
33151;BME280;19508;42.578;23.416;2023-02-01T05:28:16;93781.44;;;2.24;63.47
33151;BME280;19508;42.578;23.416;2023-02-01T05:30:41;93786.56;;;2.25;63.41
33151;BME280;19508;42.578;23.416;2023-02-01T05:33:06;93777.16;;;2.36;62.93
33151;BME280;19508;42.578;23.416;2023-02-01T05:35:32;93773.91;;;2.41;62.72
33151;BME280;19508;42.578;23.416;2023-02-01T05:37:57;93767.34;;;2.23;63.89
33151;BME280;19508;42.578;23.416;2023-02-01T05:40:23;93776.34;;;2.42;63.49
33151;BME280;19508;42.578;23.416;2023-02-01T05:42:48;93793.09;;;2.43;63.38
33151;BME280;19508;42.578;23.416;2023-02-01T05:45:14;93786.53;;;2.19;64.41
33151;BME280;19508;42.578;23.416;2023-02-01T05:47:39;93780.03;;;2.35;64.13
33151;BME280;19508;42.578;23.416;2023-02-01T05:50:05;93779.19;;;2.47;63.33
33151;BME280;19508;42.578;23.416;2023-02-01T05:52:31;93771.63;;;2.44;62.81
33151;BME280;19508;42.578;23.416;2023-02-01T05:54:57;93792.69;;;2.59;62.28
33151;BME280;19508;42.578;23.416;2023-02-01T05:57:22;93774.72;;;2.41;62.82
33151;BME280;19508;42.578;23.416;2023-02-01T05:59:48;93773.88;;;2.47;62.04
33151;BME280;19508;42.578;23.416;2023-02-01T06:02:15;93788.59;;;2.83;61.12
33151;BME280;19508;42.578;23.416;2023-02-01T06:04:40;93784.31;;;2.82;61.39
33151;BME280;19508;42.578;23.416;2023-02-01T06:07:07;93783.66;;;2.80;61.34
33151;BME280;19508;42.578;23.416;2023-02-01T06:09:35;93790.59;;;2.88;60.67
33151;BME280;19508;42.578;23.416;2023-02-01T06:12:00;93784.84;;;2.97;60.05
33151;BME280;19508;42.578;23.416;2023-02-01T06:14:26;93787.34;;;2.92;59.81
33151;BME280;19508;42.578;23.416;2023-02-01T06:16:53;93791.84;;;2.72;59.82
33151;BME280;19508;42.578;23.416;2023-02-01T06:19:18;93785.94;;;2.83;59.25
33151;BME280;19508;42.578;23.416;2023-02-01T06:21:43;93778.72;;;3.03;58.89
33151;BME280;19508;42.578;23.416;2023-02-01T06:24:09;93793.06;;;2.96;58.73
33151;BME280;19508;42.578;23.416;2023-02-01T06:26:34;93784.84;;;2.97;58.93
33151;BME280;19508;42.578;23.416;2023-02-01T06:29:01;93788.97;;;2.80;58.22
33151;BME280;19508;42.578;23.416;2023-02-01T06:31:26;93797.16;;;2.85;58.60
33151;BME280;19508;42.578;23.416;2023-02-01T06:33:52;93789.78;;;3.00;58.07
33151;BME280;19508;42.578;23.416;2023-02-01T06:36:18;93795.91;;;3.01;58.23
33151;BME280;19508;42.578;23.416;2023-02-01T06:38:46;93779.16;;;2.87;57.66
33151;BME280;19508;42.578;23.416;2023-02-01T06:41:12;93785.28;;;2.81;58.04
33151;BME280;19508;42.578;23.416;2023-02-01T06:43:37;93789.75;;;3.14;57.12
33151;BME280;19508;42.578;23.416;2023-02-01T06:46:05;93791.34;;;3.28;57.27
33151;BME280;19508;42.578;23.416;2023-02-01T06:48:32;93795.03;;;3.33;56.88
33151;BME280;19508;42.578;23.416;2023-02-01T06:50:58;93804.06;;;3.26;56.82
33151;BME280;19508;42.578;23.416;2023-02-01T06:53:23;93791.69;;;3.45;55.76
33151;BME280;19508;42.578;23.416;2023-02-01T06:56:00;93791.72;;;3.38;55.97
33151;BME280;19508;42.578;23.416;2023-02-01T06:58:31;93799.25;;;3.54;56.25
33151;BME280;19508;42.578;23.416;2023-02-01T07:00:57;93795.03;;;3.33;55.84
33151;BME280;19508;42.578;23.416;2023-02-01T07:03:23;93812.22;;;3.31;56.46
33151;BME280;19508;42.578;23.416;2023-02-01T07:05:48;93823.63;;;3.51;56.80
33151;BME280;19508;42.578;23.416;2023-02-01T07:08:14;93810.50;;;3.50;55.99
33151;BME280;19508;42.578;23.416;2023-02-01T07:10:39;93820.91;;;3.64;55.59
33151;BME280;19508;42.578;23.416;2023-02-01T07:13:05;93831.78;;;3.56;55.57
33151;BME280;19508;42.578;23.416;2023-02-01T07:15:31;93841.19;;;3.59;55.26
33151;BME280;19508;42.578;23.416;2023-02-01T07:17:57;93837.28;;;3.68;55.30
33151;BME280;19508;42.578;23.416;2023-02-01T07:20:23;93846.97;;;3.49;55.36
33151;BME280;19508;42.578;23.416;2023-02-01T07:23:10;93854.22;;;3.87;55.12
33151;BME280;19508;42.578;23.416;2023-02-01T07:25:36;93853.81;;;3.83;54.63
33151;BME280;19508;42.578;23.416;2023-02-01T07:28:02;93855.94;;;3.68;55.26
33151;BME280;19508;42.578;23.416;2023-02-01T07:30:27;93858.16;;;3.78;54.37
33151;BME280;19508;42.578;23.416;2023-02-01T07:32:52;93864.78;;;3.55;55.09
33151;BME280;19508;42.578;23.416;2023-02-01T07:35:18;93857.91;;;3.86;54.83
33151;BME280;19508;42.578;23.416;2023-02-01T07:37:43;93857.72;;;3.81;54.06
33151;BME280;19508;42.578;23.416;2023-02-01T07:40:09;93865.47;;;3.89;54.24
33151;BME280;19508;42.578;23.416;2023-02-01T07:42:35;93866.09;;;3.84;54.33
33151;BME280;19508;42.578;23.416;2023-02-01T07:45:01;93855.13;;;3.67;54.54
33151;BME280;19508;42.578;23.416;2023-02-01T07:47:27;93861.19;;;3.88;53.85
33151;BME280;19508;42.578;23.416;2023-02-01T07:49:55;93866.50;;;3.88;53.71
33151;BME280;19508;42.578;23.416;2023-02-01T07:52:20;93868.66;;;4.11;54.16
33151;BME280;19508;42.578;23.416;2023-02-01T07:54:46;93853.03;;;4.21;54.12
33151;BME280;19508;42.578;23.416;2023-02-01T07:57:11;93871.25;;;4.24;54.09
33151;BME280;19508;42.578;23.416;2023-02-01T07:59:38;93867.31;;;4.33;53.02
33151;BME280;19508;42.578;23.416;2023-02-01T08:02:23;93873.22;;;4.35;52.26
33151;BME280;19508;42.578;23.416;2023-02-01T08:04:49;93872.53;;;4.53;52.49
33151;BME280;19508;42.578;23.416;2023-02-01T08:07:14;93872.09;;;4.18;52.99
33151;BME280;19508;42.578;23.416;2023-02-01T08:09:39;93868.69;;;4.04;52.52
33151;BME280;19508;42.578;23.416;2023-02-01T08:12:05;93884.44;;;4.12;53.44
33151;BME280;19508;42.578;23.416;2023-02-01T08:14:31;93879.00;;;4.32;53.10
33151;BME280;19508;42.578;23.416;2023-02-01T08:16:56;93874.03;;;4.36;52.68
33151;BME280;19508;42.578;23.416;2023-02-01T08:19:21;93895.44;;;4.29;52.57
33151;BME280;19508;42.578;23.416;2023-02-01T08:21:47;93884.28;;;4.39;52.71
33151;BME280;19508;42.578;23.416;2023-02-01T08:24:14;93883.44;;;4.45;52.88
33151;BME280;19508;42.578;23.416;2023-02-01T08:26:39;93873.22;;;4.35;52.51
33151;BME280;19508;42.578;23.416;2023-02-01T08:29:06;93865.53;;;4.52;52.07
33151;BME280;19508;42.578;23.416;2023-02-01T08:31:31;93873.53;;;4.52;52.54
33151;BME280;19508;42.578;23.416;2023-02-01T08:34:00;93866.75;;;4.88;51.38
33151;BME280;19508;42.578;23.416;2023-02-01T08:36:28;93885.25;;;4.82;51.06
33151;BME280;19508;42.578;23.416;2023-02-01T08:38:54;93879.91;;;4.82;51.73
33151;BME280;19508;42.578;23.416;2023-02-01T08:41:22;93880.75;;;4.76;52.20
33151;BME280;19508;42.578;23.416;2023-02-01T08:43:48;93894.53;;;5.05;51.40
33151;BME280;19508;42.578;23.416;2023-02-01T08:46:13;93884.59;;;5.12;50.91
33151;BME280;19508;42.578;23.416;2023-02-01T08:48:39;93889.56;;;5.08;50.73
33151;BME280;19508;42.578;23.416;2023-02-01T08:51:08;93890.09;;;4.92;50.44
33151;BME280;19508;42.578;23.416;2023-02-01T08:53:34;93881.22;;;5.23;50.39
33151;BME280;19508;42.578;23.416;2023-02-01T08:56:01;93874.06;;;5.42;49.72
33151;BME280;19508;42.578;23.416;2023-02-01T08:58:27;93883.47;;;5.45;49.05
33151;BME280;19508;42.578;23.416;2023-02-01T09:00:52;93878.19;;;5.81;49.08
33151;BME280;19508;42.578;23.416;2023-02-01T09:03:18;93861.25;;;6.06;48.76
33151;BME280;19508;42.578;23.416;2023-02-01T09:05:44;93870.63;;;5.97;48.33
33151;BME280;19508;42.578;23.416;2023-02-01T09:08:11;93857.25;;;6.45;47.89
33151;BME280;19508;42.578;23.416;2023-02-01T09:10:39;93870.69;;;7.10;46.21
33151;BME280;19508;42.578;23.416;2023-02-01T09:13:04;93868.28;;;7.44;45.73
33151;BME280;19508;42.578;23.416;2023-02-01T09:15:30;93877.78;;;7.16;44.48
33151;BME280;19508;42.578;23.416;2023-02-01T09:17:55;93889.66;;;7.08;44.92
33151;BME280;19508;42.578;23.416;2023-02-01T09:20:21;93888.81;;;6.85;45.64
33151;BME280;19508;42.578;23.416;2023-02-01T09:22:52;93896.72;;;6.49;46.50
33151;BME280;19508;42.578;23.416;2023-02-01T09:25:18;93880.84;;;6.18;46.86
33151;BME280;19508;42.578;23.416;2023-02-01T09:27:44;93881.47;;;6.02;47.50
33151;BME280;19508;42.578;23.416;2023-02-01T09:30:10;93897.03;;;6.23;47.56
33151;BME280;19508;42.578;23.416;2023-02-01T09:32:36;93895.22;;;5.80;48.50
33151;BME280;19508;42.578;23.416;2023-02-01T09:35:01;93894.66;;;6.15;48.01
33151;BME280;19508;42.578;23.416;2023-02-01T09:37:27;93893.66;;;6.16;47.42
33151;BME280;19508;42.578;23.416;2023-02-01T09:39:52;93892.56;;;5.80;48.86
33151;BME280;19508;42.578;23.416;2023-02-01T09:42:32;93891.13;;;6.03;48.53
33151;BME280;19508;42.578;23.416;2023-02-01T09:45:06;93879.53;;;5.90;48.29
33151;BME280;19508;42.578;23.416;2023-02-01T09:47:37;93875.56;;;6.30;48.02
33151;BME280;19508;42.578;23.416;2023-02-01T09:50:17;93870.47;;;7.12;45.76
33151;BME280;19508;42.578;23.416;2023-02-01T09:52:54;93871.63;;;7.51;45.71
33151;BME280;19508;42.578;23.416;2023-02-01T09:55:40;93869.78;;;7.75;44.26
33151;BME280;19508;42.578;23.416;2023-02-01T09:58:14;93865.03;;;7.53;43.68
33151;BME280;19508;42.578;23.416;2023-02-01T10:00:51;93858.94;;;7.23;43.45
33151;BME280;19508;42.578;23.416;2023-02-01T10:03:17;93841.00;;;7.23;44.51
33151;BME280;19508;42.578;23.416;2023-02-01T10:08:49;93842.63;;;7.59;43.42
33151;BME280;19508;42.578;23.416;2023-02-01T10:11:27;93845.44;;;8.16;42.96
33151;BME280;19508;42.578;23.416;2023-02-01T10:14:13;93832.53;;;8.70;41.30
33151;BME280;19508;42.578;23.416;2023-02-01T10:17:12;93852.56;;;8.80;40.92
33151;BME280;19508;42.578;23.416;2023-02-01T10:25:08;93828.00;;;9.55;39.81
33151;BME280;19508;42.578;23.416;2023-02-01T10:27:38;93823.31;;;9.28;40.32
33151;BME280;19508;42.578;23.416;2023-02-01T10:30:24;93798.09;;;9.90;38.55
33151;BME280;19508;42.578;23.416;2023-02-01T10:32:55;93798.13;;;9.73;39.71
33151;BME280;19508;42.578;23.416;2023-02-01T10:35:29;93807.00;;;8.68;42.08
33151;BME280;19508;42.578;23.416;2023-02-01T10:38:03;93808.81;;;9.13;40.64
33151;BME280;19508;42.578;23.416;2023-02-01T10:40:31;93798.25;;;9.06;39.66
33151;BME280;19508;42.578;23.416;2023-02-01T10:43:01;93797.03;;;9.69;38.51
33151;BME280;19508;42.578;23.416;2023-02-01T10:45:29;93804.88;;;9.54;38.32
33151;BME280;19508;42.578;23.416;2023-02-01T10:47:57;93790.50;;;9.65;38.22
33151;BME280;19508;42.578;23.416;2023-02-01T10:50:54;93784.66;;;9.90;38.34
33151;BME280;19508;42.578;23.416;2023-02-01T10:53:47;93786.19;;;8.92;39.08
33151;BME280;19508;42.578;23.416;2023-02-01T10:56:22;93778.22;;;8.63;40.25
33151;BME280;19508;42.578;23.416;2023-02-01T10:58:47;93781.94;;;8.62;39.81
33151;BME280;19508;42.578;23.416;2023-02-01T11:01:30;93792.94;;;7.92;41.67
33151;BME280;19508;42.578;23.416;2023-02-01T11:04:01;93789.50;;;7.56;41.85
33151;BME280;19508;42.578;23.416;2023-02-01T11:06:44;93799.91;;;7.29;42.25
33151;BME280;19508;42.578;23.416;2023-02-01T11:09:23;93788.59;;;6.81;43.33
33151;BME280;19508;42.578;23.416;2023-02-01T11:14:27;93791.53;;;7.38;44.13
33151;BME280;19508;42.578;23.416;2023-02-01T11:17:00;93798.28;;;7.05;43.74
33151;BME280;19508;42.578;23.416;2023-02-01T11:19:27;93786.97;;;6.68;44.00
33151;BME280;19508;42.578;23.416;2023-02-01T11:21:57;93797.81;;;6.85;44.05
33151;BME280;19508;42.578;23.416;2023-02-01T11:24:29;93797.59;;;7.85;42.42
33151;BME280;19508;42.578;23.416;2023-02-01T11:26:57;93808.00;;;8.22;40.86
33151;BME280;19508;42.578;23.416;2023-02-01T11:29:25;93795.84;;;8.31;40.95
33151;BME280;19508;42.578;23.416;2023-02-01T11:31:56;93790.44;;;8.42;39.98
33151;BME280;19508;42.578;23.416;2023-02-01T11:34:28;93781.31;;;8.72;40.22
33151;BME280;19508;42.578;23.416;2023-02-01T11:37:00;93772.66;;;8.70;39.77
33151;BME280;19508;42.578;23.416;2023-02-01T11:39:35;93778.59;;;9.05;40.08
33151;BME280;19508;42.578;23.416;2023-02-01T11:42:02;93777.06;;;9.10;38.92
33151;BME280;19508;42.578;23.416;2023-02-01T11:44:40;93787.09;;;8.81;38.71
33151;BME280;19508;42.578;23.416;2023-02-01T11:47:30;93777.38;;;8.80;39.60
33151;BME280;19508;42.578;23.416;2023-02-01T11:50:00;93783.69;;;8.40;40.20
33151;BME280;19508;42.578;23.416;2023-02-01T11:55:44;93766.41;;;9.31;38.48
33151;BME280;19508;42.578;23.416;2023-02-01T12:13:31;93739.66;;;8.69;40.44
33151;BME280;19508;42.578;23.416;2023-02-01T12:16:22;93737.63;;;8.31;39.83
33151;BME280;19508;42.578;23.416;2023-02-01T12:19:08;93740.13;;;8.66;39.23
33151;BME280;19508;42.578;23.416;2023-02-01T12:21:52;93740.56;;;8.92;38.88
33151;BME280;19508;42.578;23.416;2023-02-01T12:24:30;93740.75;;;9.41;37.94
33151;BME280;19508;42.578;23.416;2023-02-01T12:33:11;93737.97;;;10.77;35.32
33151;BME280;19508;42.578;23.416;2023-02-01T12:43:58;93731.69;;;13.12;30.71
33151;BME280;19508;42.578;23.416;2023-02-01T12:46:37;93724.94;;;12.99;32.02
33151;BME280;19508;42.578;23.416;2023-02-01T12:51:49;93729.63;;;12.10;32.51
33151;BME280;19508;42.578;23.416;2023-02-01T12:56:49;93737.34;;;10.16;35.22
33151;BME280;19508;42.578;23.416;2023-02-01T13:00:23;93742.88;;;10.26;34.46
33151;BME280;19508;42.578;23.416;2023-02-01T13:05:58;93729.84;;;11.94;33.02
33151;BME280;19508;42.578;23.416;2023-02-01T13:08:49;93735.94;;;11.74;32.46
33151;BME280;19508;42.578;23.416;2023-02-01T13:11:23;93717.72;;;11.49;32.77
33151;BME280;19508;42.578;23.416;2023-02-01T13:13:59;93718.00;;;11.47;32.77
33151;BME280;19508;42.578;23.416;2023-02-01T13:16:46;93725.94;;;10.90;32.96
33151;BME280;19508;42.578;23.416;2023-02-01T13:19:21;93727.28;;;10.28;34.65
33151;BME280;19508;42.578;23.416;2023-02-01T13:21:51;93721.22;;;9.72;35.02
33151;BME280;19508;42.578;23.416;2023-02-01T13:24:35;93722.16;;;10.86;33.66
33151;BME280;19508;42.578;23.416;2023-02-01T13:27:02;93716.44;;;11.62;32.26
33151;BME280;19508;42.578;23.416;2023-02-01T13:29:29;93719.91;;;11.10;32.50
33151;BME280;19508;42.578;23.416;2023-02-01T13:40:24;93735.31;;;8.06;37.12
33151;BME280;19508;42.578;23.416;2023-02-01T13:42:56;93730.03;;;7.83;37.63
33151;BME280;19508;42.578;23.416;2023-02-01T13:45:35;93717.28;;;7.90;37.52
33151;BME280;19508;42.578;23.416;2023-02-01T13:48:07;93718.53;;;7.71;37.72
33151;BME280;19508;42.578;23.416;2023-02-01T13:50:42;93718.44;;;7.94;37.97
33151;BME280;19508;42.578;23.416;2023-02-01T13:58:28;93723.50;;;7.39;38.20
33151;BME280;19508;42.578;23.416;2023-02-01T14:03:59;93729.16;;;7.94;38.40
33151;BME280;19508;42.578;23.416;2023-02-01T14:09:33;93723.91;;;7.71;38.14
33151;BME280;19508;42.578;23.416;2023-02-01T14:17:43;93722.84;;;7.72;39.63
33151;BME280;19508;42.578;23.416;2023-02-01T14:20:45;93719.72;;;8.20;39.15
33151;BME280;19508;42.578;23.416;2023-02-01T14:23:16;93718.97;;;8.36;39.04
33151;BME280;19508;42.578;23.416;2023-02-01T14:25:44;93725.00;;;8.60;38.74
33151;BME280;19508;42.578;23.416;2023-02-01T14:28:12;93732.69;;;8.11;38.99
33151;BME280;19508;42.578;23.416;2023-02-01T14:30:47;93735.44;;;7.59;39.75
33151;BME280;19508;42.578;23.416;2023-02-01T14:33:32;93729.75;;;7.56;40.32
33151;BME280;19508;42.578;23.416;2023-02-01T14:36:15;93728.19;;;7.72;40.57
33151;BME280;19508;42.578;23.416;2023-02-01T14:38:48;93720.78;;;7.50;40.85
33151;BME280;19508;42.578;23.416;2023-02-01T14:41:33;93718.91;;;7.51;40.60
33151;BME280;19508;42.578;23.416;2023-02-01T14:57:43;93735.03;;;6.34;43.50
33151;BME280;19508;42.578;23.416;2023-02-01T15:00:23;93737.81;;;6.39;43.35
33151;BME280;19508;42.578;23.416;2023-02-01T15:02:50;93750.66;;;6.18;43.53
33151;BME280;19508;42.578;23.416;2023-02-01T15:05:27;93748.22;;;6.17;43.68
33151;BME280;19508;42.578;23.416;2023-02-01T15:07:58;93752.28;;;6.19;43.29
33151;BME280;19508;42.578;23.416;2023-02-01T15:10:26;93753.09;;;6.08;43.76
33151;BME280;19508;42.578;23.416;2023-02-01T15:12:52;93747.44;;;5.98;44.68
33151;BME280;19508;42.578;23.416;2023-02-01T15:15:20;93751.78;;;5.99;44.37